Indianapolis, IN (46275)

6:45 PM EDT on March 29, 2015 (GMT -0400)
North Fountain Square | | Change Station
CLOSE
Current Station
Personal Weather Station
Location: Indianapolis, IN
Elevation: 738 ft
Nearby Weather Stations

Elev 738 ft 39.76 °N, 86.14 °W | Updated 12 seconds ago

Overcast
Overcast
46.2 °F
Feels Like 44 °F
N
4.9
Wind Variable Wind from WSW
Gusts 7.4 mph

Today
High -- | Low -- °F
--% Chance of Precip.
Yesterday
High -- | Low -- °F
Precip. -- in
7:33 AM 8:05 PM
Waxing Gibbous, 75% visible
Pressure 29.90 in
Visibility 4.0 miles
Clouds Mostly Cloudy 5500 ft
Overcast 7000 ft
Windchill 44 °F
Dew Point 36 °F
Humidity 66%
Rainfall 0.05 in
Snow Depth Not available.
UV 0 out of 12
Pollen 7.90 out of 12
Air Quality Not available.
Flu Activity Not available.
SPECI KIND 292237Z 18015KT 4SM RA BKN055 OVC070 07/01 A2990 RMK AO2 WSHFT 2217 PRESFR P0003 T00670011

More Conditions Fewer Conditions

Pressure 29.90 in
Visibility 4.0 miles
Clouds Mostly Cloudy 5500 ft
Overcast 7000 ft
Windchill 44 °F
Dew Point 36 °F
Humidity 66%
Rainfall 0.05 in
Snow Depth Not available.
UV 0 out of 12
Pollen 7.90 out of 12
Air Quality Not available.
Flu Activity Not available.
SPECI KIND 292237Z 18015KT 4SM RA BKN055 OVC070 07/01 A2990 RMK AO2 WSHFT 2217 PRESFR P0003 T00670011

More Conditions Fewer Conditions

10-Day Weather Forecast

Almanac

Astronomy

Mar. 29, 2015 Rise Set
Actual Time
Civil Twilight
Nautical Twilight
Astronomical Twilight
Moon
Length of Visible Light
Length of Day
Tomorrow will be .
, % of the Moon is Illuminated

Today's Extremes

State Highs State Lows

Community

WunderPhotos

Upload Photos

1,809,376 photos uploaded!

WunderBlogs® & News

Nearby

Air Quality

  Air Quality AQ Index Pollutant
Not available.

Snow Depth

Station Depth Elevation

Earthquake Activity

City Distance Mag. Time & Date
Minimum magnitude displayed is 2.5.

Coastal Water Temperatures

Place Temperature

Stations

Nearby Weather Stations

Station Location Temp. Windchill Dew Point Humidity Wind Precip. Elev Updated Type